sensor_id;sensor_type;location;lat;lon;timestamp;P1;durP1;ratioP1;P2;durP2;ratioP2
8407;SDS011;4241;48.452;9.216;2023-06-14T00:01:18;469.10;;;190.00;;
8407;SDS011;4241;48.452;9.216;2023-06-14T00:03:47;469.33;;;190.30;;
8407;SDS011;4241;48.452;9.216;2023-06-14T00:06:14;470.33;;;189.43;;
8407;SDS011;4241;48.452;9.216;2023-06-14T00:08:42;469.77;;;191.00;;
8407;SDS011;4241;48.452;9.216;2023-06-14T00:11:11;468.53;;;190.37;;
8407;SDS011;4241;48.452;9.216;2023-06-14T00:13:38;469.63;;;187.03;;
8407;SDS011;4241;48.452;9.216;2023-06-14T00:16:06;466.77;;;184.60;;
8407;SDS011;4241;48.452;9.216;2023-06-14T00:18:33;468.10;;;185.73;;
8407;SDS011;4241;48.452;9.216;2023-06-14T00:21:00;466.53;;;182.63;;
8407;SDS011;4241;48.452;9.216;2023-06-14T00:23:29;465.70;;;178.83;;
8407;SDS011;4241;48.452;9.216;2023-06-14T00:25:56;469.73;;;184.13;;
8407;SDS011;4241;48.452;9.216;2023-06-14T00:28:25;468.93;;;180.73;;
8407;SDS011;4241;48.452;9.216;2023-06-14T00:30:52;468.83;;;182.27;;
8407;SDS011;4241;48.452;9.216;2023-06-14T00:33:19;466.60;;;177.50;;
8407;SDS011;4241;48.452;9.216;2023-06-14T00:35:46;475.70;;;188.50;;
8407;SDS011;4241;48.452;9.216;2023-06-14T00:38:14;467.77;;;179.67;;
8407;SDS011;4241;48.452;9.216;2023-06-14T00:40:41;465.53;;;177.13;;
8407;SDS011;4241;48.452;9.216;2023-06-14T00:43:08;466.40;;;178.63;;
8407;SDS011;4241;48.452;9.216;2023-06-14T00:45:37;469.23;;;179.30;;
8407;SDS011;4241;48.452;9.216;2023-06-14T00:48:04;465.90;;;175.17;;
8407;SDS011;4241;48.452;9.216;2023-06-14T00:50:32;465.87;;;176.20;;
8407;SDS011;4241;48.452;9.216;2023-06-14T00:53:01;468.60;;;177.57;;
8407;SDS011;4241;48.452;9.216;2023-06-14T00:55:29;474.00;;;183.70;;
8407;SDS011;4241;48.452;9.216;2023-06-14T00:57:57;465.90;;;175.60;;
8407;SDS011;4241;48.452;9.216;2023-06-14T01:00:25;467.10;;;174.70;;
8407;SDS011;4241;48.452;9.216;2023-06-14T01:02:55;468.67;;;175.90;;
8407;SDS011;4241;48.452;9.216;2023-06-14T01:05:22;467.63;;;172.60;;
8407;SDS011;4241;48.452;9.216;2023-06-14T01:07:57;463.37;;;169.30;;
8407;SDS011;4241;48.452;9.216;2023-06-14T01:10:32;463.67;;;166.67;;
8407;SDS011;4241;48.452;9.216;2023-06-14T01:13:03;465.83;;;169.57;;
8407;SDS011;4241;48.452;9.216;2023-06-14T01:15:32;470.43;;;176.10;;
8407;SDS011;4241;48.452;9.216;2023-06-14T01:18:01;462.93;;;167.30;;
8407;SDS011;4241;48.452;9.216;2023-06-14T01:20:29;462.57;;;167.27;;
8407;SDS011;4241;48.452;9.216;2023-06-14T01:22:58;466.13;;;170.80;;
8407;SDS011;4241;48.452;9.216;2023-06-14T01:25:26;467.77;;;170.17;;
8407;SDS011;4241;48.452;9.216;2023-06-14T01:27:55;462.07;;;163.73;;
8407;SDS011;4241;48.452;9.216;2023-06-14T01:30:24;463.47;;;164.23;;
8407;SDS011;4241;48.452;9.216;2023-06-14T01:32:52;463.73;;;167.57;;
8407;SDS011;4241;48.452;9.216;2023-06-14T01:35:20;462.77;;;164.73;;
8407;SDS011;4241;48.452;9.216;2023-06-14T01:37:48;462.47;;;165.80;;
8407;SDS011;4241;48.452;9.216;2023-06-14T01:40:18;460.87;;;162.77;;
8407;SDS011;4241;48.452;9.216;2023-06-14T01:42:46;460.53;;;164.27;;
8407;SDS011;4241;48.452;9.216;2023-06-14T01:45:14;463.00;;;163.20;;
8407;SDS011;4241;48.452;9.216;2023-06-14T01:47:43;460.87;;;160.80;;
8407;SDS011;4241;48.452;9.216;2023-06-14T01:50:10;459.20;;;159.27;;
8407;SDS011;4241;48.452;9.216;2023-06-14T01:52:38;458.63;;;157.33;;
8407;SDS011;4241;48.452;9.216;2023-06-14T01:55:05;456.73;;;155.33;;
8407;SDS011;4241;48.452;9.216;2023-06-14T01:57:34;457.83;;;155.20;;
8407;SDS011;4241;48.452;9.216;2023-06-14T02:00:01;457.10;;;156.13;;
8407;SDS011;4241;48.452;9.216;2023-06-14T02:02:30;455.87;;;154.57;;
8407;SDS011;4241;48.452;9.216;2023-06-14T02:04:58;454.67;;;153.93;;
8407;SDS011;4241;48.452;9.216;2023-06-14T02:07:25;458.37;;;155.93;;
8407;SDS011;4241;48.452;9.216;2023-06-14T02:09:52;457.53;;;157.13;;
8407;SDS011;4241;48.452;9.216;2023-06-14T02:12:20;456.07;;;154.03;;
8407;SDS011;4241;48.452;9.216;2023-06-14T02:14:48;454.67;;;153.50;;
8407;SDS011;4241;48.452;9.216;2023-06-14T02:17:16;455.33;;;153.03;;
8407;SDS011;4241;48.452;9.216;2023-06-14T02:19:43;458.23;;;157.77;;
8407;SDS011;4241;48.452;9.216;2023-06-14T02:22:11;455.50;;;153.00;;
8407;SDS011;4241;48.452;9.216;2023-06-14T02:24:40;455.30;;;152.80;;
8407;SDS011;4241;48.452;9.216;2023-06-14T02:27:07;452.87;;;150.40;;
8407;SDS011;4241;48.452;9.216;2023-06-14T02:29:35;454.10;;;152.20;;
8407;SDS011;4241;48.452;9.216;2023-06-14T02:32:04;452.80;;;149.97;;
8407;SDS011;4241;48.452;9.216;2023-06-14T02:34:32;457.30;;;154.47;;
8407;SDS011;4241;48.452;9.216;2023-06-14T02:37:00;454.67;;;152.53;;
8407;SDS011;4241;48.452;9.216;2023-06-14T02:39:28;453.00;;;149.70;;
8407;SDS011;4241;48.452;9.216;2023-06-14T02:41:55;453.37;;;148.93;;
8407;SDS011;4241;48.452;9.216;2023-06-14T02:44:24;452.40;;;150.67;;
8407;SDS011;4241;48.452;9.216;2023-06-14T02:46:52;454.37;;;150.43;;
8407;SDS011;4241;48.452;9.216;2023-06-14T02:49:21;450.77;;;148.67;;
8407;SDS011;4241;48.452;9.216;2023-06-14T02:51:48;449.17;;;147.73;;
8407;SDS011;4241;48.452;9.216;2023-06-14T02:54:16;447.63;;;143.90;;
8407;SDS011;4241;48.452;9.216;2023-06-14T02:56:43;448.73;;;146.10;;
8407;SDS011;4241;48.452;9.216;2023-06-14T02:59:11;450.87;;;148.60;;
8407;SDS011;4241;48.452;9.216;2023-06-14T03:01:39;449.57;;;148.47;;
8407;SDS011;4241;48.452;9.216;2023-06-14T03:04:06;452.63;;;149.77;;
8407;SDS011;4241;48.452;9.216;2023-06-14T03:06:35;449.60;;;146.63;;
8407;SDS011;4241;48.452;9.216;2023-06-14T03:09:04;451.37;;;148.00;;
8407;SDS011;4241;48.452;9.216;2023-06-14T03:11:32;449.93;;;147.40;;
8407;SDS011;4241;48.452;9.216;2023-06-14T03:13:59;450.73;;;148.77;;
8407;SDS011;4241;48.452;9.216;2023-06-14T03:16:28;448.90;;;146.73;;
8407;SDS011;4241;48.452;9.216;2023-06-14T03:18:56;455.87;;;154.67;;
8407;SDS011;4241;48.452;9.216;2023-06-14T03:21:24;448.77;;;146.43;;
8407;SDS011;4241;48.452;9.216;2023-06-14T03:23:52;446.97;;;144.90;;
8407;SDS011;4241;48.452;9.216;2023-06-14T03:26:20;448.53;;;146.77;;
8407;SDS011;4241;48.452;9.216;2023-06-14T03:28:47;446.20;;;143.93;;
8407;SDS011;4241;48.452;9.216;2023-06-14T03:31:15;447.13;;;145.37;;
8407;SDS011;4241;48.452;9.216;2023-06-14T03:33:44;451.07;;;149.13;;
8407;SDS011;4241;48.452;9.216;2023-06-14T03:36:11;451.20;;;149.13;;
8407;SDS011;4241;48.452;9.216;2023-06-14T03:38:38;449.37;;;146.30;;
8407;SDS011;4241;48.452;9.216;2023-06-14T03:41:07;448.80;;;146.43;;
8407;SDS011;4241;48.452;9.216;2023-06-14T03:43:34;446.67;;;144.43;;
8407;SDS011;4241;48.452;9.216;2023-06-14T03:46:02;446.10;;;143.37;;
8407;SDS011;4241;48.452;9.216;2023-06-14T03:48:29;447.67;;;145.73;;
8407;SDS011;4241;48.452;9.216;2023-06-14T03:50:56;448.83;;;146.30;;
8407;SDS011;4241;48.452;9.216;2023-06-14T03:53:24;450.10;;;146.70;;
8407;SDS011;4241;48.452;9.216;2023-06-14T03:55:53;447.03;;;142.80;;
8407;SDS011;4241;48.452;9.216;2023-06-14T03:58:22;449.80;;;146.70;;
8407;SDS011;4241;48.452;9.216;2023-06-14T04:00:49;447.17;;;145.63;;
8407;SDS011;4241;48.452;9.216;2023-06-14T04:03:17;446.13;;;143.37;;
8407;SDS011;4241;48.452;9.216;2023-06-14T04:05:44;445.03;;;142.30;;
8407;SDS011;4241;48.452;9.216;2023-06-14T04:08:14;449.10;;;145.77;;
8407;SDS011;4241;48.452;9.216;2023-06-14T04:10:44;452.47;;;147.80;;
8407;SDS011;4241;48.452;9.216;2023-06-14T04:13:11;450.47;;;146.50;;
8407;SDS011;4241;48.452;9.216;2023-06-14T04:15:40;452.00;;;148.23;;
8407;SDS011;4241;48.452;9.216;2023-06-14T04:18:09;451.50;;;147.23;;
8407;SDS011;4241;48.452;9.216;2023-06-14T04:20:36;451.57;;;149.37;;
8407;SDS011;4241;48.452;9.216;2023-06-14T04:23:13;446.43;;;144.17;;
8407;SDS011;4241;48.452;9.216;2023-06-14T04:25:43;459.53;;;153.63;;
8407;SDS011;4241;48.452;9.216;2023-06-14T04:28:12;448.37;;;145.60;;
8407;SDS011;4241;48.452;9.216;2023-06-14T04:30:41;448.70;;;146.77;;
8407;SDS011;4241;48.452;9.216;2023-06-14T04:33:09;448.20;;;146.80;;
8407;SDS011;4241;48.452;9.216;2023-06-14T04:35:37;449.90;;;147.70;;
8407;SDS011;4241;48.452;9.216;2023-06-14T04:38:05;448.37;;;146.63;;
8407;SDS011;4241;48.452;9.216;2023-06-14T04:40:34;447.43;;;145.07;;
8407;SDS011;4241;48.452;9.216;2023-06-14T04:43:08;445.77;;;143.90;;
8407;SDS011;4241;48.452;9.216;2023-06-14T04:45:38;452.40;;;150.80;;
8407;SDS011;4241;48.452;9.216;2023-06-14T04:48:07;446.47;;;143.77;;
8407;SDS011;4241;48.452;9.216;2023-06-14T04:50:35;447.53;;;146.17;;
8407;SDS011;4241;48.452;9.216;2023-06-14T04:53:02;448.27;;;146.07;;
8407;SDS011;4241;48.452;9.216;2023-06-14T04:55:32;457.37;;;155.87;;
8407;SDS011;4241;48.452;9.216;2023-06-14T04:57:59;447.63;;;147.60;;
8407;SDS011;4241;48.452;9.216;2023-06-14T05:00:27;448.57;;;145.63;;
8407;SDS011;4241;48.452;9.216;2023-06-14T05:02:55;446.13;;;144.30;;
8407;SDS011;4241;48.452;9.216;2023-06-14T05:05:24;456.33;;;155.67;;
8407;SDS011;4241;48.452;9.216;2023-06-14T05:07:51;448.50;;;146.63;;
8407;SDS011;4241;48.452;9.216;2023-06-14T05:10:19;449.07;;;147.67;;
8407;SDS011;4241;48.452;9.216;2023-06-14T05:12:46;451.97;;;150.80;;
8407;SDS011;4241;48.452;9.216;2023-06-14T05:15:14;449.23;;;148.87;;
8407;SDS011;4241;48.452;9.216;2023-06-14T05:17:41;449.43;;;148.87;;
8407;SDS011;4241;48.452;9.216;2023-06-14T05:20:08;449.67;;;149.13;;
8407;SDS011;4241;48.452;9.216;2023-06-14T05:22:37;448.43;;;148.13;;
8407;SDS011;4241;48.452;9.216;2023-06-14T05:25:05;449.67;;;148.90;;
8407;SDS011;4241;48.452;9.216;2023-06-14T05:27:32;451.33;;;150.90;;
8407;SDS011;4241;48.452;9.216;2023-06-14T05:30:02;451.53;;;150.77;;
8407;SDS011;4241;48.452;9.216;2023-06-14T05:32:30;449.00;;;149.83;;
8407;SDS011;4241;48.452;9.216;2023-06-14T05:34:57;451.27;;;152.23;;
8407;SDS011;4241;48.452;9.216;2023-06-14T05:37:24;451.90;;;151.73;;
8407;SDS011;4241;48.452;9.216;2023-06-14T05:39:53;453.37;;;153.37;;
8407;SDS011;4241;48.452;9.216;2023-06-14T05:42:20;452.40;;;153.73;;
8407;SDS011;4241;48.452;9.216;2023-06-14T05:44:49;452.00;;;153.60;;
8407;SDS011;4241;48.452;9.216;2023-06-14T05:47:19;452.60;;;154.07;;
8407;SDS011;4241;48.452;9.216;2023-06-14T05:49:46;460.00;;;160.93;;
8407;SDS011;4241;48.452;9.216;2023-06-14T05:52:13;457.27;;;160.20;;
8407;SDS011;4241;48.452;9.216;2023-06-14T05:54:41;455.20;;;160.30;;
8407;SDS011;4241;48.452;9.216;2023-06-14T05:57:10;455.00;;;157.43;;
8407;SDS011;4241;48.452;9.216;2023-06-14T05:59:37;454.83;;;158.30;;
8407;SDS011;4241;48.452;9.216;2023-06-14T06:02:05;456.93;;;160.57;;
8407;SDS011;4241;48.452;9.216;2023-06-14T06:04:32;455.03;;;160.90;;
8407;SDS011;4241;48.452;9.216;2023-06-14T06:07:00;458.57;;;165.00;;
8407;SDS011;4241;48.452;9.216;2023-06-14T06:09:27;457.17;;;164.70;;
8407;SDS011;4241;48.452;9.216;2023-06-14T06:11:54;461.97;;;168.17;;
8407;SDS011;4241;48.452;9.216;2023-06-14T06:14:23;458.77;;;164.90;;
8407;SDS011;4241;48.452;9.216;2023-06-14T06:16:50;460.30;;;168.30;;
8407;SDS011;4241;48.452;9.216;2023-06-14T06:19:18;461.53;;;169.47;;
8407;SDS011;4241;48.452;9.216;2023-06-14T06:21:45;462.57;;;173.70;;
8407;SDS011;4241;48.452;9.216;2023-06-14T06:24:12;462.70;;;175.17;;
8407;SDS011;4241;48.452;9.216;2023-06-14T06:26:40;463.73;;;178.43;;
8407;SDS011;4241;48.452;9.216;2023-06-14T06:29:07;463.93;;;177.83;;
8407;SDS011;4241;48.452;9.216;2023-06-14T06:31:36;464.13;;;180.40;;
8407;SDS011;4241;48.452;9.216;2023-06-14T06:34:03;463.63;;;177.70;;
8407;SDS011;4241;48.452;9.216;2023-06-14T06:36:31;471.00;;;187.47;;
8407;SDS011;4241;48.452;9.216;2023-06-14T06:38:58;465.90;;;184.80;;
8407;SDS011;4241;48.452;9.216;2023-06-14T06:41:25;466.37;;;182.00;;
8407;SDS011;4241;48.452;9.216;2023-06-14T06:43:53;468.37;;;188.43;;
8407;SDS011;4241;48.452;9.216;2023-06-14T06:46:20;469.13;;;188.83;;
8407;SDS011;4241;48.452;9.216;2023-06-14T06:48:49;467.97;;;188.73;;
8407;SDS011;4241;48.452;9.216;2023-06-14T06:51:16;472.30;;;196.03;;
8407;SDS011;4241;48.452;9.216;2023-06-14T06:53:47;467.90;;;191.90;;
8407;SDS011;4241;48.452;9.216;2023-06-14T06:56:18;471.97;;;200.63;;
8407;SDS011;4241;48.452;9.216;2023-06-14T06:58:46;471.03;;;199.90;;
8407;SDS011;4241;48.452;9.216;2023-06-14T07:01:13;474.20;;;202.47;;
8407;SDS011;4241;48.452;9.216;2023-06-14T07:03:40;474.27;;;209.50;;
8407;SDS011;4241;48.452;9.216;2023-06-14T07:06:09;478.63;;;214.20;;
8407;SDS011;4241;48.452;9.216;2023-06-14T07:08:37;472.70;;;207.23;;
8407;SDS011;4241;48.452;9.216;2023-06-14T07:11:04;474.10;;;208.90;;
8407;SDS011;4241;48.452;9.216;2023-06-14T07:13:32;478.13;;;216.53;;
8407;SDS011;4241;48.452;9.216;2023-06-14T07:15:59;475.67;;;215.10;;
8407;SDS011;4241;48.452;9.216;2023-06-14T07:18:27;477.50;;;219.97;;
8407;SDS011;4241;48.452;9.216;2023-06-14T07:20:54;477.20;;;220.50;;
8407;SDS011;4241;48.452;9.216;2023-06-14T07:23:23;479.77;;;223.33;;
8407;SDS011;4241;48.452;9.216;2023-06-14T07:25:51;476.63;;;221.77;;
8407;SDS011;4241;48.452;9.216;2023-06-14T07:28:18;479.27;;;228.27;;
8407;SDS011;4241;48.452;9.216;2023-06-14T07:30:46;478.97;;;228.87;;
8407;SDS011;4241;48.452;9.216;2023-06-14T07:33:13;477.83;;;224.20;;
8407;SDS011;4241;48.452;9.216;2023-06-14T07:35:41;485.83;;;236.50;;
8407;SDS011;4241;48.452;9.216;2023-06-14T07:38:08;480.97;;;235.83;;
8407;SDS011;4241;48.452;9.216;2023-06-14T07:40:37;482.57;;;242.47;;
8407;SDS011;4241;48.452;9.216;2023-06-14T07:43:04;482.87;;;242.70;;
8407;SDS011;4241;48.452;9.216;2023-06-14T07:45:31;491.50;;;252.07;;
8407;SDS011;4241;48.452;9.216;2023-06-14T07:47:58;480.80;;;242.10;;
8407;SDS011;4241;48.452;9.216;2023-06-14T07:50:26;482.70;;;245.53;;
8407;SDS011;4241;48.452;9.216;2023-06-14T07:52:53;482.73;;;247.17;;
8407;SDS011;4241;48.452;9.216;2023-06-14T07:55:21;486.47;;;253.40;;
8407;SDS011;4241;48.452;9.216;2023-06-14T07:57:49;482.70;;;245.70;;
8407;SDS011;4241;48.452;9.216;2023-06-14T08:00:17;484.53;;;250.20;;
8407;SDS011;4241;48.452;9.216;2023-06-14T08:02:45;483.03;;;248.13;;
8407;SDS011;4241;48.452;9.216;2023-06-14T08:05:12;483.30;;;252.23;;
8407;SDS011;4241;48.452;9.216;2023-06-14T08:07:40;484.40;;;252.07;;
8407;SDS011;4241;48.452;9.216;2023-06-14T08:10:07;484.13;;;254.30;;
8407;SDS011;4241;48.452;9.216;2023-06-14T08:12:35;488.40;;;259.63;;
8407;SDS011;4241;48.452;9.216;2023-06-14T08:15:05;484.97;;;257.17;;
8407;SDS011;4241;48.452;9.216;2023-06-14T08:17:34;486.80;;;261.73;;
8407;SDS011;4241;48.452;9.216;2023-06-14T08:20:01;485.43;;;259.20;;
8407;SDS011;4241;48.452;9.216;2023-06-14T08:22:29;485.27;;;260.53;;
8407;SDS011;4241;48.452;9.216;2023-06-14T08:24:59;489.93;;;269.03;;
8407;SDS011;4241;48.452;9.216;2023-06-14T08:27:26;493.27;;;272.50;;
8407;SDS011;4241;48.452;9.216;2023-06-14T08:29:53;488.70;;;270.90;;
8407;SDS011;4241;48.452;9.216;2023-06-14T08:32:22;490.73;;;270.53;;
8407;SDS011;4241;48.452;9.216;2023-06-14T08:34:50;488.77;;;272.13;;
8407;SDS011;4241;48.452;9.216;2023-06-14T08:37:17;491.37;;;277.07;;
8407;SDS011;4241;48.452;9.216;2023-06-14T08:39:45;490.60;;;275.47;;
8407;SDS011;4241;48.452;9.216;2023-06-14T08:42:12;492.60;;;276.33;;
8407;SDS011;4241;48.452;9.216;2023-06-14T08:44:41;492.80;;;281.07;;
8407;SDS011;4241;48.452;9.216;2023-06-14T08:47:08;494.83;;;285.67;;
8407;SDS011;4241;48.452;9.216;2023-06-14T08:49:37;500.07;;;291.60;;
8407;SDS011;4241;48.452;9.216;2023-06-14T08:52:05;496.80;;;291.87;;
8407;SDS011;4241;48.452;9.216;2023-06-14T08:54:35;494.30;;;291.83;;
8407;SDS011;4241;48.452;9.216;2023-06-14T08:57:09;498.50;;;301.30;;
8407;SDS011;4241;48.452;9.216;2023-06-14T08:59:37;494.10;;;300.73;;
8407;SDS011;4241;48.452;9.216;2023-06-14T09:02:09;494.23;;;293.33;;
8407;SDS011;4241;48.452;9.216;2023-06-14T09:04:41;494.73;;;295.83;;
8407;SDS011;4241;48.452;9.216;2023-06-14T09:07:09;495.83;;;301.20;;
8407;SDS011;4241;48.452;9.216;2023-06-14T09:09:38;495.87;;;304.17;;
8407;SDS011;4241;48.452;9.216;2023-06-14T09:12:07;496.00;;;308.73;;
8407;SDS011;4241;48.452;9.216;2023-06-14T09:14:36;496.57;;;308.53;;
8407;SDS011;4241;48.452;9.216;2023-06-14T09:17:06;496.77;;;311.77;;
8407;SDS011;4241;48.452;9.216;2023-06-14T09:19:33;499.30;;;318.93;;
8407;SDS011;4241;48.452;9.216;2023-06-14T09:22:04;497.20;;;316.13;;
8407;SDS011;4241;48.452;9.216;2023-06-14T09:24:31;497.00;;;313.40;;
8407;SDS011;4241;48.452;9.216;2023-06-14T09:26:58;496.97;;;318.53;;
8407;SDS011;4241;48.452;9.216;2023-06-14T09:29:25;497.40;;;315.10;;
8407;SDS011;4241;48.452;9.216;2023-06-14T09:31:53;501.57;;;322.90;;
8407;SDS011;4241;48.452;9.216;2023-06-14T09:34:20;496.87;;;320.17;;
8407;SDS011;4241;48.452;9.216;2023-06-14T09:36:48;498.23;;;319.17;;
8407;SDS011;4241;48.452;9.216;2023-06-14T09:39:18;498.77;;;321.33;;
8407;SDS011;4241;48.452;9.216;2023-06-14T09:41:45;500.30;;;326.30;;
8407;SDS011;4241;48.452;9.216;2023-06-14T09:44:12;500.37;;;326.30;;
8407;SDS011;4241;48.452;9.216;2023-06-14T09:46:39;498.07;;;323.03;;
8407;SDS011;4241;48.452;9.216;2023-06-14T09:49:06;497.63;;;324.87;;
8407;SDS011;4241;48.452;9.216;2023-06-14T09:51:33;499.80;;;326.23;;
8407;SDS011;4241;48.452;9.216;2023-06-14T09:54:07;505.17;;;331.33;;
8407;SDS011;4241;48.452;9.216;2023-06-14T09:56:40;499.57;;;331.87;;
8407;SDS011;4241;48.452;9.216;2023-06-14T09:59:10;499.33;;;330.67;;
8407;SDS011;4241;48.452;9.216;2023-06-14T10:01:41;502.23;;;335.33;;
8407;SDS011;4241;48.452;9.216;2023-06-14T10:04:09;500.30;;;329.20;;
8407;SDS011;4241;48.452;9.216;2023-06-14T10:06:37;501.90;;;338.70;;
8407;SDS011;4241;48.452;9.216;2023-06-14T10:09:07;501.87;;;336.00;;
8407;SDS011;4241;48.452;9.216;2023-06-14T10:11:35;505.03;;;344.30;;
8407;SDS011;4241;48.452;9.216;2023-06-14T10:14:05;499.93;;;337.07;;
8407;SDS011;4241;48.452;9.216;2023-06-14T10:16:32;501.33;;;342.33;;
8407;SDS011;4241;48.452;9.216;2023-06-14T10:19:13;500.97;;;338.63;;
8407;SDS011;4241;48.452;9.216;2023-06-14T10:21:46;505.10;;;345.50;;
8407;SDS011;4241;48.452;9.216;2023-06-14T10:24:23;500.43;;;340.50;;
8407;SDS011;4241;48.452;9.216;2023-06-14T10:26:56;502.13;;;342.17;;
8407;SDS011;4241;48.452;9.216;2023-06-14T10:29:26;506.10;;;343.57;;
8407;SDS011;4241;48.452;9.216;2023-06-14T10:31:57;502.73;;;344.07;;
8407;SDS011;4241;48.452;9.216;2023-06-14T10:34:25;502.90;;;345.70;;
8407;SDS011;4241;48.452;9.216;2023-06-14T10:37:03;501.70;;;344.70;;
8407;SDS011;4241;48.452;9.216;2023-06-14T10:39:31;502.80;;;349.67;;
8407;SDS011;4241;48.452;9.216;2023-06-14T10:42:02;507.63;;;348.10;;
8407;SDS011;4241;48.452;9.216;2023-06-14T10:47:22;507.33;;;352.50;;
8407;SDS011;4241;48.452;9.216;2023-06-14T10:49:56;503.13;;;347.70;;
8407;SDS011;4241;48.452;9.216;2023-06-14T10:52:32;502.00;;;347.03;;
8407;SDS011;4241;48.452;9.216;2023-06-14T10:55:04;504.53;;;348.30;;
8407;SDS011;4241;48.452;9.216;2023-06-14T10:57:36;502.57;;;349.20;;
8407;SDS011;4241;48.452;9.216;2023-06-14T11:00:08;502.73;;;350.20;;
8407;SDS011;4241;48.452;9.216;2023-06-14T11:06:01;502.50;;;352.30;;
8407;SDS011;4241;48.452;9.216;2023-06-14T11:08:51;507.00;;;364.33;;
8407;SDS011;4241;48.452;9.216;2023-06-14T11:11:45;513.97;;;372.77;;
8407;SDS011;4241;48.452;9.216;2023-06-14T11:14:14;505.57;;;364.77;;
8407;SDS011;4241;48.452;9.216;2023-06-14T11:16:42;507.67;;;365.50;;
8407;SDS011;4241;48.452;9.216;2023-06-14T11:19:14;508.77;;;370.93;;
8407;SDS011;4241;48.452;9.216;2023-06-14T11:21:42;507.50;;;374.23;;
8407;SDS011;4241;48.452;9.216;2023-06-14T11:24:13;515.90;;;382.70;;
8407;SDS011;4241;48.452;9.216;2023-06-14T11:26:40;510.53;;;379.03;;
8407;SDS011;4241;48.452;9.216;2023-06-14T11:29:07;509.37;;;375.80;;
8407;SDS011;4241;48.452;9.216;2023-06-14T11:31:34;514.57;;;381.43;;
8407;SDS011;4241;48.452;9.216;2023-06-14T11:34:03;513.03;;;385.40;;
8407;SDS011;4241;48.452;9.216;2023-06-14T11:36:31;511.17;;;383.23;;
8407;SDS011;4241;48.452;9.216;2023-06-14T11:39:01;513.30;;;385.33;;
8407;SDS011;4241;48.452;9.216;2023-06-14T11:41:35;511.47;;;391.20;;
8407;SDS011;4241;48.452;9.216;2023-06-14T11:44:03;510.73;;;387.47;;
8407;SDS011;4241;48.452;9.216;2023-06-14T11:46:31;516.17;;;391.70;;
8407;SDS011;4241;48.452;9.216;2023-06-14T11:48:58;513.47;;;390.37;;
8407;SDS011;4241;48.452;9.216;2023-06-14T11:51:29;511.07;;;386.60;;
8407;SDS011;4241;48.452;9.216;2023-06-14T11:53:57;513.77;;;384.60;;
8407;SDS011;4241;48.452;9.216;2023-06-14T11:56:24;508.90;;;378.27;;
8407;SDS011;4241;48.452;9.216;2023-06-14T11:58:52;517.47;;;387.33;;
8407;SDS011;4241;48.452;9.216;2023-06-14T12:01:21;517.90;;;382.83;;
8407;SDS011;4241;48.452;9.216;2023-06-14T12:03:48;514.20;;;382.80;;
8407;SDS011;4241;48.452;9.216;2023-06-14T12:06:16;514.80;;;388.30;;
8407;SDS011;4241;48.452;9.216;2023-06-14T12:08:55;519.13;;;389.03;;
8407;SDS011;4241;48.452;9.216;2023-06-14T12:11:22;512.33;;;382.10;;
8407;SDS011;4241;48.452;9.216;2023-06-14T12:13:49;512.03;;;386.50;;
8407;SDS011;4241;48.452;9.216;2023-06-14T12:16:16;515.07;;;392.07;;
8407;SDS011;4241;48.452;9.216;2023-06-14T12:18:43;511.00;;;388.60;;
8407;SDS011;4241;48.452;9.216;2023-06-14T12:21:13;511.53;;;394.97;;
8407;SDS011;4241;48.452;9.216;2023-06-14T12:23:43;510.63;;;389.20;;
8407;SDS011;4241;48.452;9.216;2023-06-14T12:26:16;515.17;;;397.73;;
8407;SDS011;4241;48.452;9.216;2023-06-14T12:28:44;511.53;;;395.63;;
8407;SDS011;4241;48.452;9.216;2023-06-14T12:31:13;515.70;;;399.17;;
8407;SDS011;4241;48.452;9.216;2023-06-14T12:33:41;513.30;;;394.83;;
8407;SDS011;4241;48.452;9.216;2023-06-14T12:36:10;513.13;;;394.33;;
8407;SDS011;4241;48.452;9.216;2023-06-14T12:38:37;513.40;;;392.50;;
8407;SDS011;4241;48.452;9.216;2023-06-14T12:41:04;511.70;;;390.87;;
8407;SDS011;4241;48.452;9.216;2023-06-14T12:43:34;514.37;;;397.60;;
8407;SDS011;4241;48.452;9.216;2023-06-14T12:46:01;516.57;;;398.67;;
8407;SDS011;4241;48.452;9.216;2023-06-14T12:48:28;524.07;;;407.23;;
8407;SDS011;4241;48.452;9.216;2023-06-14T12:50:57;517.03;;;408.13;;
8407;SDS011;4241;48.452;9.216;2023-06-14T12:53:24;516.27;;;401.30;;
8407;SDS011;4241;48.452;9.216;2023-06-14T12:55:51;515.40;;;401.77;;
8407;SDS011;4241;48.452;9.216;2023-06-14T12:58:18;513.33;;;396.27;;
8407;SDS011;4241;48.452;9.216;2023-06-14T13:00:47;515.83;;;399.80;;
8407;SDS011;4241;48.452;9.216;2023-06-14T13:03:14;512.83;;;393.37;;
8407;SDS011;4241;48.452;9.216;2023-06-14T13:05:41;513.63;;;393.30;;
8407;SDS011;4241;48.452;9.216;2023-06-14T13:08:08;513.57;;;392.57;;
8407;SDS011;4241;48.452;9.216;2023-06-14T13:10:35;513.00;;;397.73;;
8407;SDS011;4241;48.452;9.216;2023-06-14T13:13:03;513.47;;;394.80;;
8407;SDS011;4241;48.452;9.216;2023-06-14T13:15:30;520.47;;;405.40;;
8407;SDS011;4241;48.452;9.216;2023-06-14T13:17:58;511.60;;;388.97;;
8407;SDS011;4241;48.452;9.216;2023-06-14T13:20:25;510.10;;;388.50;;
8407;SDS011;4241;48.452;9.216;2023-06-14T13:22:52;510.77;;;388.27;;
8407;SDS011;4241;48.452;9.216;2023-06-14T13:25:19;511.30;;;386.50;;
8407;SDS011;4241;48.452;9.216;2023-06-14T13:27:47;511.33;;;393.53;;
8407;SDS011;4241;48.452;9.216;2023-06-14T13:30:14;513.97;;;397.37;;
8407;SDS011;4241;48.452;9.216;2023-06-14T13:32:41;512.63;;;397.93;;
8407;SDS011;4241;48.452;9.216;2023-06-14T13:35:10;513.00;;;401.17;;
8407;SDS011;4241;48.452;9.216;2023-06-14T13:37:37;515.23;;;404.27;;
8407;SDS011;4241;48.452;9.216;2023-06-14T13:40:05;515.13;;;403.87;;
8407;SDS011;4241;48.452;9.216;2023-06-14T13:42:33;510.83;;;398.37;;
8407;SDS011;4241;48.452;9.216;2023-06-14T13:45:01;512.57;;;394.97;;
8407;SDS011;4241;48.452;9.216;2023-06-14T13:47:28;510.23;;;389.43;;
8407;SDS011;4241;48.452;9.216;2023-06-14T13:49:56;512.97;;;386.37;;
8407;SDS011;4241;48.452;9.216;2023-06-14T13:52:24;513.27;;;386.50;;
8407;SDS011;4241;48.452;9.216;2023-06-14T13:54:52;510.77;;;384.73;;
8407;SDS011;4241;48.452;9.216;2023-06-14T13:57:19;509.13;;;380.23;;
8407;SDS011;4241;48.452;9.216;2023-06-14T13:59:46;514.73;;;383.73;;
8407;SDS011;4241;48.452;9.216;2023-06-14T14:02:13;508.47;;;375.47;;
8407;SDS011;4241;48.452;9.216;2023-06-14T14:04:40;507.63;;;375.50;;
8407;SDS011;4241;48.452;9.216;2023-06-14T14:07:08;514.83;;;386.07;;
8407;SDS011;4241;48.452;9.216;2023-06-14T14:09:36;508.83;;;380.47;;
8407;SDS011;4241;48.452;9.216;2023-06-14T14:12:04;509.03;;;382.60;;
8407;SDS011;4241;48.452;9.216;2023-06-14T14:14:32;511.90;;;384.17;;
8407;SDS011;4241;48.452;9.216;2023-06-14T14:16:59;509.17;;;379.57;;
8407;SDS011;4241;48.452;9.216;2023-06-14T14:19:26;510.93;;;389.47;;
8407;SDS011;4241;48.452;9.216;2023-06-14T14:21:53;516.37;;;390.17;;
8407;SDS011;4241;48.452;9.216;2023-06-14T14:24:20;509.63;;;383.30;;
8407;SDS011;4241;48.452;9.216;2023-06-14T14:26:49;509.77;;;381.00;;
8407;SDS011;4241;48.452;9.216;2023-06-14T14:29:18;513.70;;;383.43;;
8407;SDS011;4241;48.452;9.216;2023-06-14T14:31:45;507.00;;;377.93;;
8407;SDS011;4241;48.452;9.216;2023-06-14T14:34:12;509.00;;;376.20;;